Aeroporto :
LOGIN :

Iscrizione | Disclaimer

   EN    FR    IT 

 










Sommario :    VFR   VFR Marginale   IFR   IFR Intensivo   IFR Molto Intensivo
Visibilità : 
Base nubi : 
>= 8 km
>= 3000ft
5 / 8 km
1000 / 3000 ft
1500m / 5 km
500 / 1000 ft
800 / 1500m
200 / 500 ft
< 800m
< 200 ft
Simboli :   Temporali  Nebbia  Neve Forte  Precipitazioni Forti  Vento > 20 kt
SIGMETs :   Varie  Temporali  Ghiacco  Turbolenza  Onda orograficha  Ceneri Vulcaniche






- Altitudine del aeroporto : 129 ft
- Codice IATA : ZCN


ETHC - Celle

ULTIMO METAR :
  • 260420Z 18003KT 1600 -DZ BR BKN001 01/00 Q1019 RED

METARs OBSOLETI :
  • 260347Z 19003KT 1700 -DZ BR BKN001 01/00 Q1019 RED
  • 260320Z 19003KT 2000 -DZ BR BKN002 01/00 Q1019 AMB
  • 260253Z 20003KT 1800 -DZ BR SCT001 BKN002 01/00 Q1019 AMB
  • 260220Z 19003KT 1800 -DZ BR SCT001 BKN005 00/M00 Q1019 YLO
  • 260149Z 19002KT 2000 -DZ BR BKN001 00/M00 Q1019 RED

Previsioni scadute.



MetMap, La meteo Aeronautica in un colpo d'occhio ! - Copyright ORBIFLY Dicembre 2007 - Disclaimer

ORBIFLY MET'MAP TEAM :

Programmazione e sviluppo : Alexandra Zaïnal
Concezione : Baudouin d'Aumeries
Aiuto per la programmazione : Marc-Olivier Méhu
Supporto tecnico e logistico : Manuel Goepfert
Aiuto per la traduzione : Arnaldo La Scala

Contatto : metmap@orbifly.com




FONTI E CREDITI :

   NOAA